Time;durP1;ratioP1;P1;durP2;ratioP2;P2;SDS_P1;SDS_P2;PMS_P1;PMS_P2;Temp;Humidity;BMP_temperature;BMP_pressure;BME280_temperature;BME280_humidity;BME280_pressure;Samples;Min_cycle;Max_cycle;Signal;HPM_P1;HPM_P2
2023/01/12 00:01:27;;;;;;;21.40;4.70;;;;;;;;;;5069556;28;20127;-65
2023/01/12 00:03:53;;;;;;;25.87;5.50;;;;;;;;;;5068582;28;20050;-65
2023/01/12 00:06:20;;;;;;;28.77;5.50;;;;;;;;;;5069818;28;20047;-65
2023/01/12 00:08:47;;;;;;;20.30;4.50;;;;;;;;;;5068338;28;20137;-65
2023/01/12 00:11:13;;;;;;;23.37;4.60;;;;;;;;;;5069865;28;20051;-65
2023/01/12 00:13:39;;;;;;;24.53;5.23;;;;;;;;;;5069465;28;20044;-65
2023/01/12 00:18:50;;;;;;;28.40;5.20;;;;;;;;;;5068520;28;20066;-65
2023/01/12 00:21:16;;;;;;;29.80;4.93;;;;;;;;;;5069205;28;20048;-65
2023/01/12 00:23:43;;;;;;;23.13;4.77;;;;;;;;;;5068031;28;20525;-65
2023/01/12 00:26:09;;;;;;;28.30;5.47;;;;;;;;;;5068222;28;20487;-65
2023/01/12 00:28:36;;;;;;;24.13;4.37;;;;;;;;;;5051556;28;20052;-66
2023/01/12 00:31:03;;;;;;;29.40;4.83;;;;;;;;;;5069305;28;20058;-65
2023/01/12 00:33:29;;;;;;;23.47;4.93;;;;;;;;;;5068790;28;20040;-65
2023/01/12 00:35:55;;;;;;;31.40;5.73;;;;;;;;;;5069365;28;20090;-65
2023/01/12 00:38:21;;;;;;;27.57;4.00;;;;;;;;;;5068932;28;20075;-65
2023/01/12 00:40:47;;;;;;;24.80;4.53;;;;;;;;;;5068633;28;20135;-65
2023/01/12 00:45:58;;;;;;;26.50;5.47;;;;;;;;;;5068657;28;20517;-65
2023/01/12 00:48:24;;;;;;;27.53;5.13;;;;;;;;;;5068816;28;20056;-65
2023/01/12 00:50:50;;;;;;;22.10;3.70;;;;;;;;;;5067644;28;20044;-65
2023/01/12 00:53:16;;;;;;;22.30;4.47;;;;;;;;;;5068637;28;20051;-65
2023/01/12 00:55:44;;;;;;;34.03;5.90;;;;;;;;;;5068944;28;20108;-65
2023/01/12 00:58:10;;;;;;;23.43;3.93;;;;;;;;;;5050797;28;20102;-65
2023/01/12 01:00:36;;;;;;;15.50;4.17;;;;;;;;;;5050390;28;20088;-65
2023/01/12 01:03:03;;;;;;;20.07;3.97;;;;;;;;;;5068780;28;20075;-65
2023/01/12 01:05:29;;;;;;;24.80;4.67;;;;;;;;;;5068776;28;20044;-65
2023/01/12 01:07:55;;;;;;;24.50;5.00;;;;;;;;;;5067775;28;20048;-66
2023/01/12 01:10:21;;;;;;;23.93;5.73;;;;;;;;;;5068671;28;20074;-67
2023/01/12 01:12:47;;;;;;;30.57;4.73;;;;;;;;;;5067074;28;20140;-66
2023/01/12 01:15:14;;;;;;;21.57;5.50;;;;;;;;;;5068327;28;20080;-66
2023/01/12 01:17:40;;;;;;;26.53;4.80;;;;;;;;;;5068565;28;20112;-65
2023/01/12 01:20:06;;;;;;;24.60;5.00;;;;;;;;;;5067526;28;20041;-65
2023/01/12 01:22:32;;;;;;;25.60;4.90;;;;;;;;;;5067964;28;20044;-66
2023/01/12 01:24:58;;;;;;;28.43;4.83;;;;;;;;;;5068484;28;20109;-65
2023/01/12 01:27:24;;;;;;;23.97;4.97;;;;;;;;;;5068364;28;20079;-65
2023/01/12 01:29:50;;;;;;;19.83;5.70;;;;;;;;;;5067837;28;20049;-65
2023/01/12 01:32:16;;;;;;;16.20;4.37;;;;;;;;;;5068429;28;20046;-65
2023/01/12 01:34:42;;;;;;;27.23;5.10;;;;;;;;;;5066835;28;20044;-66
2023/01/12 01:37:08;;;;;;;23.73;6.30;;;;;;;;;;5068253;28;20115;-65
2023/01/12 01:39:34;;;;;;;32.13;5.13;;;;;;;;;;5068283;28;20144;-65
2023/01/12 01:42:00;;;;;;;28.87;4.87;;;;;;;;;;5068051;28;20123;-66
2023/01/12 01:44:29;;;;;;;28.47;5.30;;;;;;;;;;5067901;28;20040;-65
2023/01/12 01:47:00;;;;;;;26.37;6.03;;;;;;;;;;5066867;28;20052;-65
2023/01/12 01:49:26;;;;;;;36.40;6.60;;;;;;;;;;5068332;28;20052;-66
2023/01/12 01:51:54;;;;;;;35.17;6.80;;;;;;;;;;5067852;28;20047;-66
2023/01/12 01:54:20;;;;;;;24.70;5.60;;;;;;;;;;5068047;28;20691;-66
2023/01/12 01:56:47;;;;;;;25.50;5.07;;;;;;;;;;5068135;28;20044;-66
2023/01/12 01:59:15;;;;;;;34.10;5.80;;;;;;;;;;5067792;28;20044;-66
2023/01/12 02:01:41;;;;;;;25.00;6.17;;;;;;;;;;5068250;28;20044;-67
2023/01/12 02:04:07;;;;;;;30.23;6.50;;;;;;;;;;5068252;28;20530;-66
2023/01/12 02:06:33;;;;;;;27.97;5.87;;;;;;;;;;5066616;28;20048;-66
2023/01/12 02:09:02;;;;;;;33.37;6.10;;;;;;;;;;5066943;28;20079;-66
2023/01/12 02:17:18;;;;;;;26.70;5.50;;;;;;;;;;5067216;28;20060;-67
2023/01/12 02:19:56;;;;;;;25.67;5.43;;;;;;;;;;5068605;28;20049;-66
2023/01/12 02:22:46;;;;;;;21.80;5.07;;;;;;;;;;5071408;28;20168;-67
2023/01/12 02:25:31;;;;;;;32.27;6.20;;;;;;;;;;5062852;28;20053;-67
2023/01/12 02:28:10;;;;;;;35.23;7.83;;;;;;;;;;5069930;28;20545;-66
2023/01/12 02:30:59;;;;;;;31.03;5.57;;;;;;;;;;5070002;28;20044;-66
2023/01/12 02:33:25;;;;;;;32.47;5.83;;;;;;;;;;5065898;28;20499;-67
2023/01/12 02:35:51;;;;;;;29.53;6.30;;;;;;;;;;5071124;28;20056;-66
2023/01/12 02:38:20;;;;;;;27.97;6.80;;;;;;;;;;5070943;28;20045;-67
2023/01/12 02:40:52;;;;;;;22.67;6.73;;;;;;;;;;5071089;28;20048;-67
2023/01/12 02:43:26;;;;;;;31.03;5.73;;;;;;;;;;5069746;28;20048;-67
2023/01/12 02:46:11;;;;;;;20.47;5.13;;;;;;;;;;5070543;28;20048;-67
2023/01/12 02:48:39;;;;;;;30.67;6.73;;;;;;;;;;5069559;28;20067;-67
2023/01/12 02:51:05;;;;;;;30.57;6.27;;;;;;;;;;5070678;28;20041;-67
2023/01/12 02:53:51;;;;;;;28.43;5.87;;;;;;;;;;5070791;28;20051;-66
2023/01/12 02:56:22;;;;;;;26.00;6.80;;;;;;;;;;5070888;28;20055;-67
2023/01/12 02:58:51;;;;;;;30.50;8.30;;;;;;;;;;5068919;28;20513;-67
2023/01/12 03:01:19;;;;;;;29.07;6.20;;;;;;;;;;5070550;28;20040;-68
2023/01/12 03:03:46;;;;;;;27.87;6.50;;;;;;;;;;5069362;28;20063;-67
2023/01/12 03:06:16;;;;;;;24.57;5.97;;;;;;;;;;5070021;28;20132;-66
2023/01/12 03:08:44;;;;;;;30.67;5.73;;;;;;;;;;5070987;28;20162;-67
2023/01/12 03:11:16;;;;;;;36.20;7.53;;;;;;;;;;5069271;28;20048;-67
2023/01/12 03:13:56;;;;;;;31.77;7.10;;;;;;;;;;5070825;28;20040;-67
2023/01/12 03:16:27;;;;;;;25.80;6.27;;;;;;;;;;5069122;28;20625;-67
2023/01/12 03:18:55;;;;;;;25.47;7.27;;;;;;;;;;5070412;28;20055;-67
2023/01/12 03:21:25;;;;;;;28.30;5.90;;;;;;;;;;5069272;28;20045;-67
2023/01/12 03:24:06;;;;;;;20.97;6.17;;;;;;;;;;5070087;28;20056;-66
2023/01/12 03:26:33;;;;;;;21.57;5.50;;;;;;;;;;5070537;28;20045;-67
2023/01/12 03:29:03;;;;;;;24.00;5.07;;;;;;;;;;5068977;28;20051;-67
2023/01/12 03:31:29;;;;;;;22.73;5.90;;;;;;;;;;5068135;28;20125;-67
2023/01/12 03:33:56;;;;;;;29.43;6.20;;;;;;;;;;5070141;28;20044;-67
2023/01/12 03:36:42;;;;;;;22.10;6.47;;;;;;;;;;5069835;28;20040;-67
2023/01/12 03:39:14;;;;;;;16.63;4.57;;;;;;;;;;5069515;28;20594;-67
2023/01/12 03:41:57;;;;;;;21.27;5.50;;;;;;;;;;5068477;28;20045;-67
2023/01/12 03:44:40;;;;;;;15.05;5.18;;;;;;;;;;5069967;28;20040;-67
2023/01/12 03:47:11;;;;;;;20.17;5.28;;;;;;;;;;5068145;28;20068;-67
2023/01/12 03:49:43;;;;;;;24.13;6.53;;;;;;;;;;5069578;28;20506;-66
2023/01/12 03:52:10;;;;;;;13.50;5.90;;;;;;;;;;5068060;28;20084;-68
2023/01/12 03:54:37;;;;;;;22.07;5.97;;;;;;;;;;5069790;28;20542;-67
2023/01/12 03:57:03;;;;;;;20.77;7.73;;;;;;;;;;5069887;28;20048;-67
2023/01/12 03:59:29;;;;;;;17.70;6.50;;;;;;;;;;5069759;28;20052;-67
2023/01/12 04:01:55;;;;;;;18.57;5.80;;;;;;;;;;5069593;28;20052;-67
2023/01/12 04:04:22;;;;;;;16.57;5.27;;;;;;;;;;5069527;28;20055;-67
2023/01/12 04:06:48;;;;;;;12.93;4.87;;;;;;;;;;5069292;28;20059;-67
2023/01/12 04:09:14;;;;;;;16.83;5.37;;;;;;;;;;5069566;28;20048;-67
2023/01/12 04:14:25;;;;;;;17.67;4.93;;;;;;;;;;5068894;28;20045;-67
2023/01/12 04:16:51;;;;;;;16.30;5.10;;;;;;;;;;5069312;28;20050;-67
2023/01/12 04:19:17;;;;;;;18.33;4.63;;;;;;;;;;5069426;28;20045;-67
2023/01/12 04:24:28;;;;;;;16.27;5.23;;;;;;;;;;5068288;28;20045;-68
2023/01/12 04:26:54;;;;;;;12.57;4.40;;;;;;;;;;5068153;28;20041;-67
2023/01/12 04:29:20;;;;;;;14.77;5.20;;;;;;;;;;5068594;28;20407;-67
2023/01/12 04:31:46;;;;;;;21.57;5.23;;;;;;;;;;5069031;28;20051;-67
2023/01/12 04:34:14;;;;;;;11.70;4.67;;;;;;;;;;5069015;28;20045;-68
2023/01/12 04:36:41;;;;;;;14.67;4.80;;;;;;;;;;5068698;28;20177;-67
2023/01/12 04:39:07;;;;;;;15.40;4.57;;;;;;;;;;5068752;28;20048;-67
2023/01/12 04:41:33;;;;;;;13.47;3.73;;;;;;;;;;5068659;28;20474;-67
2023/01/12 04:43:59;;;;;;;11.97;4.00;;;;;;;;;;5068542;28;20048;-68
2023/01/12 04:46:26;;;;;;;11.90;3.83;;;;;;;;;;5068901;28;20047;-67
2023/01/12 04:48:51;;;;;;;15.93;5.30;;;;;;;;;;5068326;28;20053;-67
2023/01/12 04:51:18;;;;;;;11.90;2.90;;;;;;;;;;5067370;28;20470;-68
2023/01/12 04:53:44;;;;;;;12.30;3.00;;;;;;;;;;5068384;28;20127;-67
2023/01/12 04:56:10;;;;;;;11.23;3.53;;;;;;;;;;5068654;28;20049;-68
2023/01/12 04:58:36;;;;;;;6.83;2.90;;;;;;;;;;5066789;28;20098;-67
2023/01/12 05:01:09;;;;;;;8.90;3.17;;;;;;;;;;5068675;28;20506;-68
2023/01/12 05:03:35;;;;;;;;;;;;;;;;;;5068430;28;20041;-67
2023/01/12 05:06:02;;;;;;;6.83;2.90;;;;;;;;;;5067002;28;19920;-67
2023/01/12 05:11:13;;;;;;;9.47;3.03;;;;;;;;;;5067524;28;20148;-68
2023/01/12 05:13:39;;;;;;;10.33;2.57;;;;;;;;;;5066095;28;20851;-68
2023/01/12 05:16:09;;;;;;;11.80;2.37;;;;;;;;;;5067290;28;20044;-67
2023/01/12 05:18:35;;;;;;;9.93;2.50;;;;;;;;;;5068213;28;20052;-67
2023/01/12 05:21:02;;;;;;;8.53;1.90;;;;;;;;;;5068576;28;20102;-67
2023/01/12 05:23:28;;;;;;;8.60;3.10;;;;;;;;;;5068353;28;20048;-67
2023/01/12 05:25:57;;;;;;;9.27;2.40;;;;;;;;;;5068245;28;20188;-67
2023/01/12 05:28:23;;;;;;;6.10;2.07;;;;;;;;;;5068119;28;20093;-67
2023/01/12 05:30:50;;;;;;;7.47;2.27;;;;;;;;;;5068133;28;20040;-67
2023/01/12 05:33:18;;;;;;;6.20;2.23;;;;;;;;;;5067671;28;20052;-67
2023/01/12 05:35:44;;;;;;;4.77;2.30;;;;;;;;;;5067285;28;20097;-68
2023/01/12 05:38:10;;;;;;;7.60;2.87;;;;;;;;;;5068093;28;20056;-67
2023/01/12 05:40:36;;;;;;;9.50;2.43;;;;;;;;;;5067687;28;20540;-67
2023/01/12 05:45:47;;;;;;;13.43;2.33;;;;;;;;;;5066800;28;20052;-68
2023/01/12 05:48:13;;;;;;;9.90;2.20;;;;;;;;;;5067951;28;20057;-68
2023/01/12 05:50:39;;;;;;;7.07;2.30;;;;;;;;;;5067570;28;20110;-68
2023/01/12 05:53:05;;;;;;;1.23;0.63;;;;;;;;;;5067082;28;20050;-67
2023/01/12 05:55:31;;;;;;;9.87;3.07;;;;;;;;;;5071663;28;20048;-68
2023/01/12 05:57:58;;;;;;;13.47;3.20;;;;;;;;;;5070732;28;20071;-69
2023/01/12 06:00:25;;;;;;;7.97;2.50;;;;;;;;;;5070708;28;20446;-67
2023/01/12 06:02:51;;;;;;;17.60;3.47;;;;;;;;;;5071792;28;20040;-68
2023/01/12 06:05:17;;;;;;;11.80;2.57;;;;;;;;;;5071655;28;20094;-68
2023/01/12 06:07:43;;;;;;;10.00;2.33;;;;;;;;;;5071713;28;20053;-67
2023/01/12 06:10:09;;;;;;;8.07;3.27;;;;;;;;;;5053725;28;20052;-69
2023/01/12 06:15:20;;;;;;;5.40;2.80;;;;;;;;;;5070275;28;20044;-68
2023/01/12 06:17:46;;;;;;;10.23;2.93;;;;;;;;;;5071376;28;20044;-67
2023/01/12 06:20:16;;;;;;;9.67;2.80;;;;;;;;;;5071517;28;20563;-68
2023/01/12 06:22:42;;;;;;;9.57;2.67;;;;;;;;;;5070104;28;20048;-67
2023/01/12 06:25:08;;;;;;;9.37;2.57;;;;;;;;;;5071802;28;20447;-67
2023/01/12 06:27:37;;;;;;;9.37;2.57;;;;;;;;;;5071162;28;20060;-68
2023/01/12 06:30:04;;;;;;;8.33;2.93;;;;;;;;;;5071370;28;20055;-68
2023/01/12 06:32:30;;;;;;;10.40;2.87;;;;;;;;;;5070970;28;20048;-67
2023/01/12 06:34:57;;;;;;;6.73;2.43;;;;;;;;;;5071205;28;20181;-67
2023/01/12 06:37:24;;;;;;;7.57;2.17;;;;;;;;;;5069396;28;20437;-67
2023/01/12 06:39:50;;;;;;;7.93;2.60;;;;;;;;;;5069755;28;20072;-67
2023/01/12 06:42:28;;;;;;;6.87;2.73;;;;;;;;;;5071093;28;20173;-67
2023/01/12 06:44:54;;;;;;;5.97;2.30;;;;;;;;;;5070731;28;20037;-68
2023/01/12 06:47:21;;;;;;;3.97;1.80;;;;;;;;;;5071132;28;20036;-67
2023/01/12 06:49:47;;;;;;;7.03;2.20;;;;;;;;;;5069705;28;20036;-68
2023/01/12 06:52:13;;;;;;;5.27;2.07;;;;;;;;;;5070399;28;20430;-68
2023/01/12 06:54:39;;;;;;;5.10;1.70;;;;;;;;;;5069648;28;20048;-68
2023/01/12 06:57:05;;;;;;;7.40;2.20;;;;;;;;;;5071350;28;20044;-67
2023/01/12 06:59:31;;;;;;;3.97;2.00;;;;;;;;;;5070789;28;20041;-67
2023/01/12 07:01:57;;;;;;;5.17;2.00;;;;;;;;;;5069334;28;20510;-67
2023/01/12 07:04:23;;;;;;;5.53;1.93;;;;;;;;;;5071123;28;20051;-67
2023/01/12 07:06:53;;;;;;;7.67;1.93;;;;;;;;;;5070863;28;20048;-67
2023/01/12 07:09:19;;;;;;;5.13;2.30;;;;;;;;;;5070002;28;20406;-67
2023/01/12 07:11:45;;;;;;;7.10;3.20;;;;;;;;;;5070970;28;20054;-67
2023/01/12 07:14:11;;;;;;;5.40;1.93;;;;;;;;;;5070695;28;20399;-66
2023/01/12 07:16:39;;;;;;;3.03;1.73;;;;;;;;;;5070360;28;20044;-66
2023/01/12 07:19:05;;;;;;;6.73;2.33;;;;;;;;;;5069705;28;20975;-66
2023/01/12 07:21:31;;;;;;;4.37;1.93;;;;;;;;;;5069587;28;20102;-66
2023/01/12 07:23:57;;;;;;;5.43;2.70;;;;;;;;;;5070495;28;20457;-67
2023/01/12 07:26:23;;;;;;;4.37;2.07;;;;;;;;;;5069061;28;20083;-67
2023/01/12 07:28:49;;;;;;;4.27;2.20;;;;;;;;;;5066182;28;20063;-66
2023/01/12 07:31:15;;;;;;;4.27;2.03;;;;;;;;;;5061230;28;20041;-66
2023/01/12 07:33:41;;;;;;;7.13;2.40;;;;;;;;;;5050036;28;20137;-66
2023/01/12 07:36:07;;;;;;;4.20;2.47;;;;;;;;;;5050295;28;20049;-66
2023/01/12 07:38:33;;;;;;;5.33;2.83;;;;;;;;;;5050327;28;20044;-66
2023/01/12 07:41:00;;;;;;;4.63;2.50;;;;;;;;;;5049773;28;20045;-66
2023/01/12 07:43:26;;;;;;;6.60;2.83;;;;;;;;;;5048607;28;20384;-67
2023/01/12 07:45:52;;;;;;;4.27;2.83;;;;;;;;;;5049707;28;20041;-67
2023/01/12 07:48:20;;;;;;;9.47;2.93;;;;;;;;;;5049684;28;20057;-67
2023/01/12 07:50:48;;;;;;;5.63;3.37;;;;;;;;;;5047200;28;20056;-67
2023/01/12 07:53:14;;;;;;;5.70;2.73;;;;;;;;;;5049713;28;20572;-66
2023/01/12 07:55:42;;;;;;;7.07;3.40;;;;;;;;;;5059979;28;20036;-67
2023/01/12 07:58:08;;;;;;;7.50;4.00;;;;;;;;;;5066522;28;20083;-67
2023/01/12 08:00:35;;;;;;;8.83;4.10;;;;;;;;;;5053101;28;20045;-67
2023/01/12 08:03:05;;;;;;;8.37;3.67;;;;;;;;;;5058390;28;20076;-66
2023/01/12 08:05:31;;;;;;;5.80;3.53;;;;;;;;;;5055953;28;20047;-67
2023/01/12 08:07:57;;;;;;;7.57;3.53;;;;;;;;;;5049973;28;20136;-66
2023/01/12 08:10:23;;;;;;;9.37;4.50;;;;;;;;;;5039710;28;20512;-67
2023/01/12 08:12:50;;;;;;;12.30;4.70;;;;;;;;;;5053653;28;20071;-67
2023/01/12 08:15:16;;;;;;;7.90;3.57;;;;;;;;;;5056276;28;20051;-68
2023/01/12 08:17:52;;;;;;;12.30;4.30;;;;;;;;;;5062042;28;20050;-67
2023/01/12 08:20:20;;;;;;;13.73;5.10;;;;;;;;;;5054601;28;20182;-67
2023/01/12 08:22:47;;;;;;;11.27;4.60;;;;;;;;;;5062839;28;20495;-67
2023/01/12 08:25:19;;;;;;;16.20;5.73;;;;;;;;;;5048192;28;20044;-67
2023/01/12 08:27:46;;;;;;;12.50;5.57;;;;;;;;;;5055776;28;20075;-67
2023/01/12 08:30:14;;;;;;;15.50;5.70;;;;;;;;;;5052329;28;20055;-67
2023/01/12 08:32:40;;;;;;;18.60;6.83;;;;;;;;;;5047704;28;20053;-67
2023/01/12 08:35:06;;;;;;;25.13;6.40;;;;;;;;;;5048854;28;20045;-67
2023/01/12 08:37:34;;;;;;;19.83;7.57;;;;;;;;;;5064271;28;20503;-67
2023/01/12 08:40:00;;;;;;;21.63;7.43;;;;;;;;;;5051912;28;20056;-67
2023/01/12 08:42:27;;;;;;;27.13;7.33;;;;;;;;;;5047498;28;20094;-67
2023/01/12 08:44:53;;;;;;;24.97;8.27;;;;;;;;;;5056759;28;20139;-67
2023/01/12 08:47:27;;;;;;;20.03;6.73;;;;;;;;;;5051140;28;20091;-66
2023/01/12 08:49:53;;;;;;;;;;;;;;;;;;5047761;28;20052;-66
2023/01/12 08:52:19;;;;;;;26.90;7.27;;;;;;;;;;5046364;28;19980;-68
2023/01/12 08:54:45;;;;;;;35.77;7.17;;;;;;;;;;5046927;28;20149;-67
2023/01/12 08:57:11;;;;;;;33.17;6.77;;;;;;;;;;5046922;28;20081;-66
2023/01/12 08:59:37;;;;;;;29.87;6.23;;;;;;;;;;5047390;28;20098;-66
2023/01/12 09:02:04;;;;;;;35.33;6.87;;;;;;;;;;5046862;28;20044;-67
2023/01/12 09:04:30;;;;;;;41.43;7.37;;;;;;;;;;5055443;28;20404;-66
2023/01/12 09:06:56;;;;;;;37.00;6.80;;;;;;;;;;5065503;28;20052;-67
2023/01/12 09:09:24;;;;;;;37.73;7.17;;;;;;;;;;5067763;28;20490;-66
2023/01/12 09:11:50;;;;;;;35.17;5.33;;;;;;;;;;5048289;28;20190;-66
2023/01/12 09:14:17;;;;;;;36.93;6.43;;;;;;;;;;5047617;28;20493;-67
2023/01/12 09:16:43;;;;;;;37.87;6.30;;;;;;;;;;5047795;28;20099;-66
2023/01/12 09:19:09;;;;;;;39.07;6.80;;;;;;;;;;5047009;28;20044;-68
2023/01/12 09:21:37;;;;;;;40.43;6.77;;;;;;;;;;5048227;28;20083;-67
2023/01/12 09:24:04;;;;;;;38.70;5.73;;;;;;;;;;5047360;28;20135;-67
2023/01/12 09:26:36;;;;;;;40.00;5.90;;;;;;;;;;5047532;28;20045;-66
2023/01/12 09:29:03;;;;;;;45.47;6.43;;;;;;;;;;5046252;28;20432;-67
2023/01/12 09:31:30;;;;;;;35.10;5.90;;;;;;;;;;5030033;28;20053;-67
2023/01/12 09:33:56;;;;;;;35.53;4.97;;;;;;;;;;5048148;28;20049;-66
2023/01/12 09:36:23;;;;;;;39.30;6.13;;;;;;;;;;5047922;28;20111;-66
2023/01/12 09:38:49;;;;;;;44.37;6.90;;;;;;;;;;5047533;28;20059;-67
2023/01/12 09:47:27;;;;;;;38.13;6.63;;;;;;;;;;5048315;28;20287;-67
2023/01/12 09:50:08;;;;;;;29.63;5.00;;;;;;;;;;5046496;28;20487;-66
2023/01/12 09:52:36;;;;;;;30.13;5.07;;;;;;;;;;5047304;28;20473;-66
2023/01/12 09:55:02;;;;;;;35.23;4.97;;;;;;;;;;5048053;28;20068;-66
2023/01/12 09:57:47;;;;;;;28.83;4.83;;;;;;;;;;5046715;28;20053;-66
2023/01/12 10:00:15;;;;;;;32.00;5.37;;;;;;;;;;5047996;28;20106;-66
2023/01/12 10:02:43;;;;;;;31.97;4.63;;;;;;;;;;5047278;28;20418;-67
2023/01/12 10:05:36;;;;;;;28.73;5.23;;;;;;;;;;5046749;28;20052;-68
2023/01/12 10:08:02;;;;;;;36.77;5.77;;;;;;;;;;5045683;28;20103;-67
2023/01/12 10:10:28;;;;;;;31.63;5.30;;;;;;;;;;5046597;28;20560;-70
2023/01/12 10:12:56;;;;;;;25.40;4.20;;;;;;;;;;5046732;28;20045;-67
2023/01/12 10:15:42;;;;;;;28.80;4.87;;;;;;;;;;5047366;28;20045;-67
2023/01/12 10:18:29;;;;;;;32.90;5.13;;;;;;;;;;5047707;28;20060;-67
2023/01/12 10:20:55;;;;;;;27.77;5.47;;;;;;;;;;5047710;28;20495;-66
2023/01/12 10:23:23;;;;;;;31.40;5.33;;;;;;;;;;5048041;28;20080;-67
2023/01/12 10:26:08;;;;;;;40.10;6.37;;;;;;;;;;5046162;28;20091;-66
2023/01/12 10:28:35;;;;;;;19.33;4.00;;;;;;;;;;5047159;28;20106;-68
2023/01/12 10:31:01;;;;;;;33.57;5.13;;;;;;;;;;5046401;28;20124;-67
2023/01/12 10:33:32;;;;;;;38.27;5.03;;;;;;;;;;5046557;28;20136;-67
2023/01/12 10:36:02;;;;;;;41.30;5.17;;;;;;;;;;5046489;28;20190;-68
2023/01/12 10:38:28;;;;;;;30.33;4.63;;;;;;;;;;5047454;28;20059;-69
2023/01/12 10:41:09;;;;;;;33.33;4.23;;;;;;;;;;5049730;28;20049;-68
2023/01/12 10:43:36;;;;;;;29.80;4.80;;;;;;;;;;5049072;28;20056;-67
2023/01/12 10:46:09;;;;;;;31.10;5.60;;;;;;;;;;5051106;28;20116;-67
2023/01/12 10:48:37;;;;;;;38.67;5.20;;;;;;;;;;5049661;28;20084;-69
2023/01/12 10:51:05;;;;;;;31.20;5.93;;;;;;;;;;5050494;28;20049;-68
2023/01/12 10:53:35;;;;;;;39.33;5.67;;;;;;;;;;5049613;28;20057;-68
2023/01/12 10:56:11;;;;;;;36.37;5.67;;;;;;;;;;5050816;28;20040;-67
2023/01/12 10:58:41;;;;;;;26.00;5.03;;;;;;;;;;5049576;28;20303;-70
2023/01/12 11:01:08;;;;;;;37.50;5.77;;;;;;;;;;5050331;28;20058;-69
2023/01/12 11:03:40;;;;;;;31.17;4.93;;;;;;;;;;5049824;28;20056;-67
2023/01/12 11:06:25;;;;;;;32.40;6.43;;;;;;;;;;5050721;28;20088;-67
2023/01/12 11:08:55;;;;;;;31.90;6.30;;;;;;;;;;5050256;28;20524;-68
2023/01/12 11:11:21;;;;;;;31.60;5.17;;;;;;;;;;5049563;28;20506;-67
2023/01/12 11:13:47;;;;;;;31.77;5.73;;;;;;;;;;5049630;28;20049;-67
2023/01/12 11:16:21;;;;;;;30.13;4.47;;;;;;;;;;5055034;28;20148;-66
2023/01/12 11:18:52;;;;;;;43.63;7.17;;;;;;;;;;5067420;28;20051;-68
2023/01/12 11:21:21;;;;;;;27.77;4.20;;;;;;;;;;5069983;28;20436;-67
2023/01/12 11:23:53;;;;;;;31.87;4.43;;;;;;;;;;5070336;28;20418;-67
2023/01/12 11:26:22;;;;;;;26.47;4.27;;;;;;;;;;5068802;28;20083;-67
2023/01/12 11:28:51;;;;;;;30.73;5.60;;;;;;;;;;5069418;28;20041;-67
2023/01/12 11:31:30;;;;;;;35.73;5.73;;;;;;;;;;5070329;28;20045;-68
2023/01/12 11:34:02;;;;;;;30.33;5.13;;;;;;;;;;5070128;28;20051;-68
2023/01/12 11:36:34;;;;;;;34.30;5.63;;;;;;;;;;5069359;28;20394;-67
2023/01/12 11:39:00;;;;;;;34.93;4.83;;;;;;;;;;5070086;28;20051;-66
2023/01/12 11:41:33;;;;;;;36.77;6.93;;;;;;;;;;5070189;28;20044;-65
2023/01/12 11:44:02;;;;;;;29.92;5.30;;;;;;;;;;5069770;28;20048;-65
2023/01/12 11:46:46;;;;;;;39.70;5.47;;;;;;;;;;5068798;28;20098;-66
2023/01/12 11:49:32;;;;;;;32.07;4.70;;;;;;;;;;5068674;28;20084;-65
2023/01/12 11:51:59;;;;;;;23.93;4.60;;;;;;;;;;5067922;28;20487;-65
2023/01/12 11:54:26;;;;;;;44.47;6.63;;;;;;;;;;5068081;28;20106;-65
2023/01/12 11:56:55;;;;;;;27.80;5.90;;;;;;;;;;5068475;28;20044;-66
2023/01/12 11:59:29;;;;;;;39.90;6.27;;;;;;;;;;5069795;28;20637;-65
2023/01/12 12:01:55;;;;;;;33.30;5.03;;;;;;;;;;5068800;28;20045;-67
2023/01/12 12:04:40;;;;;;;35.30;6.47;;;;;;;;;;5069580;28;20059;-68
2023/01/12 12:07:15;;;;;;;32.47;5.03;;;;;;;;;;5070006;28;20059;-67
2023/01/12 12:09:50;;;;;;;40.77;6.67;;;;;;;;;;5067909;28;20518;-68
2023/01/12 12:12:23;;;;;;;47.27;6.30;;;;;;;;;;5069452;28;20109;-67
2023/01/12 12:15:06;;;;;;;36.05;6.88;;;;;;;;;;5068426;28;20048;-67
2023/01/12 12:17:32;;;;;;;38.80;6.90;;;;;;;;;;5069216;28;20518;-66
2023/01/12 12:20:01;;;;;;;36.93;6.37;;;;;;;;;;5067696;28;20048;-66
2023/01/12 12:22:46;;;;;;;34.70;6.10;;;;;;;;;;5067860;28;20189;-66
2023/01/12 12:25:23;;;;;;;28.53;4.93;;;;;;;;;;5069180;28;20048;-67
2023/01/12 12:28:07;;;;;;;33.63;5.37;;;;;;;;;;5051077;28;20082;-67
2023/01/12 12:30:44;;;;;;;23.83;4.27;;;;;;;;;;5068233;28;20067;-66
2023/01/12 12:33:32;;;;;;;29.10;5.77;;;;;;;;;;5068970;28;20079;-67
2023/01/12 12:36:07;;;;;;;27.17;5.37;;;;;;;;;;5068958;28;20493;-67
2023/01/12 12:38:42;;;;;;;26.00;5.77;;;;;;;;;;5066916;28;20068;-67
2023/01/12 12:46:54;;;;;;;25.87;5.30;;;;;;;;;;5067569;28;20510;-67
2023/01/12 12:49:24;;;;;;;33.58;5.50;;;;;;;;;;5067962;28;20053;-67
2023/01/12 12:51:50;;;;;;;23.60;5.03;;;;;;;;;;5068562;28;20061;-67
2023/01/12 12:54:19;;;;;;;28.37;5.23;;;;;;;;;;5068560;28;20068;-67
2023/01/12 12:56:46;;;;;;;25.47;4.60;;;;;;;;;;5068186;28;20551;-67
2023/01/12 12:59:39;;;;;;;33.83;6.57;;;;;;;;;;5050674;28;20187;-67
2023/01/12 13:02:25;;;;;;;27.80;3.90;;;;;;;;;;5067083;28;20055;-68
2023/01/12 13:04:52;;;;;;;28.67;4.63;;;;;;;;;;5068448;28;20570;-65
2023/01/12 13:07:22;;;;;;;29.83;4.50;;;;;;;;;;5068594;28;20063;-65
2023/01/12 13:09:48;;;;;;;18.40;4.40;;;;;;;;;;5067408;28;20055;-66
2023/01/12 13:12:29;;;;;;;24.13;4.33;;;;;;;;;;5068300;28;20045;-67
2023/01/12 13:15:14;;;;;;;24.87;4.00;;;;;;;;;;5068171;28;20127;-66
2023/01/12 13:17:42;;;;;;;21.47;4.27;;;;;;;;;;5068367;28;20071;-67
2023/01/12 13:20:08;;;;;;;19.60;3.57;;;;;;;;;;5068240;28;20044;-66
2023/01/12 13:22:44;;;;;;;24.43;3.97;;;;;;;;;;5068135;28;20056;-68
2023/01/12 13:25:19;;;;;;;24.87;3.93;;;;;;;;;;5066774;28;20490;-68
2023/01/12 13:27:53;;;;;;;23.63;4.93;;;;;;;;;;5068074;28;20467;-68
2023/01/12 13:30:28;;;;;;;24.87;5.03;;;;;;;;;;5068391;28;20082;-68
2023/01/12 13:32:54;;;;;;;26.70;5.63;;;;;;;;;;5067756;28;20565;-68
2023/01/12 13:35:32;;;;;;;27.60;5.90;;;;;;;;;;5067261;28;20139;-68
2023/01/12 13:37:58;;;;;;;25.27;5.37;;;;;;;;;;5068178;28;20146;-68
2023/01/12 13:40:30;;;;;;;26.23;7.10;;;;;;;;;;5066988;28;20087;-68
2023/01/12 13:43:18;;;;;;;23.53;6.90;;;;;;;;;;5066262;28;20044;-69
2023/01/12 13:45:50;;;;;;;17.27;5.53;;;;;;;;;;5049858;28;20045;-68
2023/01/12 13:48:17;;;;;;;17.53;5.43;;;;;;;;;;5068440;28;20205;-69
2023/01/12 13:51:00;;;;;;;22.90;5.83;;;;;;;;;;5066514;28;20048;-69
2023/01/12 13:53:28;;;;;;;17.95;5.38;;;;;;;;;;5067995;28;20044;-68
2023/01/12 13:56:00;;;;;;;18.63;6.10;;;;;;;;;;5066537;28;20048;-68
2023/01/12 13:58:26;;;;;;;28.03;7.63;;;;;;;;;;5066442;28;20048;-68
2023/01/12 14:00:53;;;;;;;22.30;6.63;;;;;;;;;;5066870;28;20055;-68
2023/01/12 14:03:46;;;;;;;16.60;6.17;;;;;;;;;;5068144;28;20055;-68
2023/01/12 14:06:12;;;;;;;19.07;5.83;;;;;;;;;;5067890;28;20045;-68
2023/01/12 14:09:04;;;;;;;15.60;5.17;;;;;;;;;;5066229;28;20051;-68
2023/01/12 14:11:45;;;;;;;18.90;4.90;;;;;;;;;;5052030;28;20409;-68
2023/01/12 14:20:00;;;;;;;12.95;3.78;;;;;;;;;;5071393;28;20507;-69
2023/01/12 14:22:26;;;;;;;42.37;4.43;;;;;;;;;;5071148;28;20130;-69
2023/01/12 14:25:06;;;;;;;0.00;0.00;;;;;;;;;;5067852;28;20071;-69
2023/01/12 14:27:32;;;;;;;0.00;0.00;;;;;;;;;;5058825;28;20049;-68
2023/01/12 14:29:59;;;;;;;0.00;0.00;;;;;;;;;;5057678;28;20166;-69
2023/01/12 14:32:26;;;;;;;0.10;0.10;;;;;;;;;;5059058;28;20041;-69
2023/01/12 14:34:53;;;;;;;0.00;0.00;;;;;;;;;;5059839;28;20056;-68
2023/01/12 14:37:33;;;;;;;0.00;0.00;;;;;;;;;;5042809;28;20122;-69
2023/01/12 14:40:00;;;;;;;0.00;0.00;;;;;;;;;;5060683;28;20056;-66
2023/01/12 14:48:04;;;;;;;;;;;;;;;;;;5070763;28;20094;-67
2023/01/12 14:50:30;;;;;;;0.00;0.00;;;;;;;;;;5070057;28;19943;-67
2023/01/12 14:52:56;;;;;;;0.00;0.00;;;;;;;;;;5071373;28;20522;-67
2023/01/12 14:55:27;;;;;;;1.40;0.67;;;;;;;;;;5071043;28;20093;-67
2023/01/12 14:57:56;;;;;;;1.30;0.20;;;;;;;;;;5070777;28;20153;-67
2023/01/12 15:00:24;;;;;;;0.00;0.00;;;;;;;;;;5067969;28;20047;-68
2023/01/12 15:02:51;;;;;;;0.50;0.50;;;;;;;;;;5049205;28;20075;-67
2023/01/12 15:05:27;;;;;;;0.00;0.00;;;;;;;;;;5051978;28;20056;-68
2023/01/12 15:07:53;;;;;;;0.00;0.00;;;;;;;;;;5070798;28;20175;-67
2023/01/12 15:10:19;;;;;;;0.00;0.00;;;;;;;;;;5061728;28;20128;-67
2023/01/12 15:12:46;;;;;;;0.00;0.00;;;;;;;;;;5052522;28;20415;-68
2023/01/12 15:15:18;;;;;;;0.00;0.00;;;;;;;;;;5069476;28;20128;-67
2023/01/12 15:26:03;;;;;;;0.33;0.33;;;;;;;;;;5067572;28;20040;-69
2023/01/12 15:28:29;;;;;;;0.13;0.13;;;;;;;;;;5063396;28;20048;-69
2023/01/12 15:30:55;;;;;;;0.00;0.00;;;;;;;;;;5057393;28;20052;-67
2023/01/12 15:33:21;;;;;;;0.00;0.00;;;;;;;;;;5064665;28;20052;-68
2023/01/12 15:35:47;;;;;;;0.00;0.00;;;;;;;;;;5070239;28;20701;-68
2023/01/12 15:38:17;;;;;;;0.00;0.00;;;;;;;;;;5061438;28;20123;-69
2023/01/12 15:40:45;;;;;;;0.03;0.03;;;;;;;;;;5057933;28;20100;-68
2023/01/12 15:43:14;;;;;;;0.10;0.10;;;;;;;;;;5057460;28;20040;-69